Time;durP1;ratioP1;P1;durP2;ratioP2;P2;SDS_P1;SDS_P2;PMS_P1;PMS_P2;Temp;Humidity;BMP_temperature;BMP_pressure;BME280_temperature;BME280_humidity;BME280_pressure;Samples;Min_cycle;Max_cycle;Signal;HPM_P1;HPM_P2
2022/03/21 00:01:56;;;;;;;15.07;11.87;;;;;;;;;;5036009;28;20255;-75
2022/03/21 00:04:23;;;;;;;14.87;12.23;;;;;;;;;;5036039;28;20262;-74
2022/03/21 00:06:54;;;;;;;14.67;11.73;;;;;;;;;;5036103;28;20209;-74
2022/03/21 00:09:23;;;;;;;15.63;11.60;;;;;;;;;;5037130;28;20272;-74
2022/03/21 00:11:53;;;;;;;13.23;11.83;;;;;;;;;;5037743;28;20284;-74
2022/03/21 00:14:20;;;;;;;14.03;12.10;;;;;;;;;;5038347;28;20210;-75
2022/03/21 00:16:48;;;;;;;14.33;11.30;;;;;;;;;;5036952;28;20206;-74
2022/03/21 00:19:17;;;;;;;13.57;11.27;;;;;;;;;;5035434;28;20222;-75
2022/03/21 00:21:44;;;;;;;14.20;11.60;;;;;;;;;;5038435;28;20209;-75
2022/03/21 00:24:11;;;;;;;14.03;12.00;;;;;;;;;;5037712;28;20217;-75
2022/03/21 00:26:39;;;;;;;13.20;11.43;;;;;;;;;;5037494;28;20739;-74
2022/03/21 00:29:07;;;;;;;13.20;11.40;;;;;;;;;;5038261;28;20348;-75
2022/03/21 00:31:35;;;;;;;14.63;11.57;;;;;;;;;;5036694;28;20252;-75
2022/03/21 00:34:02;;;;;;;13.90;12.23;;;;;;;;;;5037382;28;20293;-75
2022/03/21 00:36:31;;;;;;;14.20;11.57;;;;;;;;;;5036729;28;20230;-75
2022/03/21 00:38:58;;;;;;;13.83;11.60;;;;;;;;;;5036526;28;20221;-75
2022/03/21 00:41:26;;;;;;;13.20;11.27;;;;;;;;;;5035891;28;20269;-75
2022/03/21 00:43:53;;;;;;;12.80;11.00;;;;;;;;;;5034679;28;20210;-75
2022/03/21 00:46:21;;;;;;;15.57;12.13;;;;;;;;;;5033822;28;20212;-75
2022/03/21 00:48:48;;;;;;;13.63;11.73;;;;;;;;;;5031291;28;20233;-75
2022/03/21 00:51:15;;;;;;;13.47;11.60;;;;;;;;;;5031598;28;20261;-75
2022/03/21 00:53:44;;;;;;;13.97;12.17;;;;;;;;;;5031725;28;20240;-75
2022/03/21 00:56:11;;;;;;;13.97;11.70;;;;;;;;;;5031883;28;20210;-75
2022/03/21 00:58:38;;;;;;;14.83;11.57;;;;;;;;;;5031312;28;20206;-75
2022/03/21 01:01:05;;;;;;;13.10;11.30;;;;;;;;;;5031845;28;20221;-75
2022/03/21 01:03:32;;;;;;;14.10;11.40;;;;;;;;;;5031540;28;20201;-75
2022/03/21 01:06:00;;;;;;;15.03;11.73;;;;;;;;;;5035720;28;20297;-75
2022/03/21 01:08:27;;;;;;;13.47;11.40;;;;;;;;;;5034881;28;20206;-75
2022/03/21 01:10:55;;;;;;;14.20;12.07;;;;;;;;;;5035677;28;20253;-75
2022/03/21 01:13:23;;;;;;;13.30;11.20;;;;;;;;;;5034942;28;20206;-75
2022/03/21 01:15:50;;;;;;;13.83;11.27;;;;;;;;;;5034760;28;20232;-75
2022/03/21 01:18:17;;;;;;;14.83;11.73;;;;;;;;;;5034182;28;20202;-75
2022/03/21 01:20:44;;;;;;;13.53;11.20;;;;;;;;;;5035089;28;20229;-75
2022/03/21 01:23:11;;;;;;;15.50;11.50;;;;;;;;;;5034937;28;20216;-75
2022/03/21 01:25:38;;;;;;;15.60;12.10;;;;;;;;;;5034851;28;20212;-74
2022/03/21 01:28:07;;;;;;;16.53;12.90;;;;;;;;;;5034073;28;20297;-75
2022/03/21 01:30:36;;;;;;;16.37;13.17;;;;;;;;;;5034848;28;20232;-75
2022/03/21 01:33:03;;;;;;;15.20;12.20;;;;;;;;;;5034746;28;20202;-74
2022/03/21 01:35:30;;;;;;;14.57;11.63;;;;;;;;;;5035070;28;20218;-75
2022/03/21 01:37:58;;;;;;;14.40;11.70;;;;;;;;;;5034168;28;20269;-75
2022/03/21 01:40:25;;;;;;;14.67;12.03;;;;;;;;;;5035770;28;20324;-75
2022/03/21 01:42:52;;;;;;;15.37;12.13;;;;;;;;;;5034390;28;20205;-75
2022/03/21 01:45:21;;;;;;;14.47;11.80;;;;;;;;;;5034562;28;20602;-75
2022/03/21 01:47:48;;;;;;;15.27;12.40;;;;;;;;;;5033739;28;20198;-75
2022/03/21 01:50:16;;;;;;;13.00;11.40;;;;;;;;;;5034646;28;20229;-75
2022/03/21 01:52:43;;;;;;;16.93;12.90;;;;;;;;;;5034043;28;20253;-75
2022/03/21 01:57:59;;;;;;;14.73;12.80;;;;;;;;;;5007556;28;20234;-75
2022/03/21 02:00:28;;;;;;;17.37;13.43;;;;;;;;;;5033884;28;20313;-75
2022/03/21 02:02:56;;;;;;;14.93;13.17;;;;;;;;;;5034188;28;20301;-75
2022/03/21 02:05:23;;;;;;;16.93;12.27;;;;;;;;;;5034233;28;20284;-75
2022/03/21 02:07:50;;;;;;;13.60;11.60;;;;;;;;;;5034282;28;20206;-75
2022/03/21 02:10:18;;;;;;;18.30;13.57;;;;;;;;;;5035160;28;20222;-75
2022/03/21 02:12:45;;;;;;;15.63;12.93;;;;;;;;;;5035228;28;20242;-75
2022/03/21 02:15:13;;;;;;;16.47;12.60;;;;;;;;;;5034736;28;20202;-74
2022/03/21 02:17:44;;;;;;;16.43;12.77;;;;;;;;;;5034661;28;20206;-74
2022/03/21 02:20:12;;;;;;;15.37;12.50;;;;;;;;;;5034792;28;20224;-74
2022/03/21 02:22:43;;;;;;;15.07;12.50;;;;;;;;;;5034645;28;20209;-74
2022/03/21 02:25:18;;;;;;;14.23;11.73;;;;;;;;;;5027141;28;20285;-74
2022/03/21 02:27:46;;;;;;;12.97;11.20;;;;;;;;;;5033374;28;20212;-74
2022/03/21 02:30:14;;;;;;;16.63;12.47;;;;;;;;;;5033202;28;20312;-74
2022/03/21 02:32:42;;;;;;;16.07;13.00;;;;;;;;;;5032783;28;20231;-74
2022/03/21 02:35:10;;;;;;;15.50;12.10;;;;;;;;;;5033550;28;20202;-74
2022/03/21 02:37:37;;;;;;;17.87;13.37;;;;;;;;;;5032599;28;20216;-74
2022/03/21 02:40:08;;;;;;;17.20;12.70;;;;;;;;;;5033670;28;20304;-75
2022/03/21 02:42:37;;;;;;;17.63;13.10;;;;;;;;;;5032901;28;20685;-75
2022/03/21 02:45:04;;;;;;;18.93;13.07;;;;;;;;;;5033102;28;20285;-75
2022/03/21 02:47:31;;;;;;;16.70;12.63;;;;;;;;;;5032415;28;20212;-74
2022/03/21 02:49:59;;;;;;;16.07;13.20;;;;;;;;;;5033244;28;20249;-75
2022/03/21 02:52:27;;;;;;;16.30;12.80;;;;;;;;;;5032984;28;20237;-74
2022/03/21 02:54:54;;;;;;;15.13;13.17;;;;;;;;;;5032678;28;20225;-75
2022/03/21 02:57:21;;;;;;;17.97;13.53;;;;;;;;;;5032445;28;20241;-75
2022/03/21 02:59:50;;;;;;;16.30;13.13;;;;;;;;;;5030956;28;20230;-75
2022/03/21 03:02:17;;;;;;;14.73;12.23;;;;;;;;;;5032807;28;20252;-74
2022/03/21 03:04:44;;;;;;;15.80;13.00;;;;;;;;;;5032852;28;20261;-75
2022/03/21 03:07:12;;;;;;;17.33;13.63;;;;;;;;;;5032496;28;20201;-74
2022/03/21 03:09:39;;;;;;;18.93;12.97;;;;;;;;;;5034402;28;20226;-74
2022/03/21 03:12:08;;;;;;;15.87;13.37;;;;;;;;;;5035540;28;20289;-74
2022/03/21 03:14:35;;;;;;;20.03;14.33;;;;;;;;;;5035400;28;20221;-74
2022/03/21 03:17:04;;;;;;;16.23;13.80;;;;;;;;;;5032828;28;20288;-74
2022/03/21 03:19:31;;;;;;;19.80;14.47;;;;;;;;;;5034388;28;20314;-75
2022/03/21 03:21:59;;;;;;;17.67;13.57;;;;;;;;;;5032704;28;20234;-74
2022/03/21 03:24:27;;;;;;;15.13;12.53;;;;;;;;;;5027228;28;20203;-74
2022/03/21 03:26:54;;;;;;;16.60;13.53;;;;;;;;;;5031616;28;20230;-74
2022/03/21 03:29:21;;;;;;;20.27;13.77;;;;;;;;;;5032455;28;20232;-75
2022/03/21 03:31:49;;;;;;;16.63;13.40;;;;;;;;;;5034610;28;20224;-75
2022/03/21 03:34:17;;;;;;;17.37;14.20;;;;;;;;;;5034790;28;20601;-74
2022/03/21 03:36:45;;;;;;;18.20;14.30;;;;;;;;;;5034326;28;20209;-75
2022/03/21 03:39:12;;;;;;;17.10;14.03;;;;;;;;;;5034839;28;20312;-74
2022/03/21 03:41:39;;;;;;;15.17;13.00;;;;;;;;;;5035011;28;20208;-74
2022/03/21 03:44:07;;;;;;;16.40;13.17;;;;;;;;;;5035022;28;20204;-74
2022/03/21 03:46:34;;;;;;;16.53;13.70;;;;;;;;;;5034991;28;20202;-74
2022/03/21 03:49:01;;;;;;;16.43;13.47;;;;;;;;;;5033087;28;20206;-74
2022/03/21 03:51:30;;;;;;;17.37;13.40;;;;;;;;;;5034428;28;20209;-75
2022/03/21 03:53:57;;;;;;;16.47;13.67;;;;;;;;;;5033837;28;20300;-74
2022/03/21 03:56:24;;;;;;;16.67;13.50;;;;;;;;;;5034586;28;20218;-75
2022/03/21 03:58:52;;;;;;;18.70;13.67;;;;;;;;;;5033980;28;20208;-74
2022/03/21 04:01:19;;;;;;;16.83;13.80;;;;;;;;;;5034664;28;20209;-75
2022/03/21 04:03:47;;;;;;;18.30;13.73;;;;;;;;;;5034612;28;20289;-74
2022/03/21 04:06:14;;;;;;;17.23;13.63;;;;;;;;;;5034542;28;20268;-74
2022/03/21 04:08:43;;;;;;;15.83;13.40;;;;;;;;;;5033687;28;20213;-74
2022/03/21 04:11:10;;;;;;;16.07;13.03;;;;;;;;;;5034335;28;20198;-75
2022/03/21 04:13:37;;;;;;;17.30;13.30;;;;;;;;;;5034052;28;20316;-74
2022/03/21 04:16:05;;;;;;;18.23;13.37;;;;;;;;;;5034557;28;20236;-74
2022/03/21 04:18:32;;;;;;;17.17;13.47;;;;;;;;;;5032665;28;20202;-75
2022/03/21 04:20:59;;;;;;;17.30;13.20;;;;;;;;;;5033874;28;20226;-75
2022/03/21 04:23:27;;;;;;;17.20;13.43;;;;;;;;;;5034872;28;20198;-74
2022/03/21 04:25:55;;;;;;;17.10;13.83;;;;;;;;;;5034329;28;20241;-74
2022/03/21 04:28:22;;;;;;;17.87;14.17;;;;;;;;;;5034437;28;20243;-74
2022/03/21 04:30:50;;;;;;;17.40;13.33;;;;;;;;;;5046707;28;20225;-74
2022/03/21 04:33:17;;;;;;;17.87;13.53;;;;;;;;;;5049725;28;20225;-74
2022/03/21 04:35:45;;;;;;;19.93;14.37;;;;;;;;;;5037677;28;20229;-74
2022/03/21 04:38:17;;;;;;;18.70;13.27;;;;;;;;;;5038529;28;20241;-75
2022/03/21 04:40:45;;;;;;;17.03;13.43;;;;;;;;;;5038684;28;20241;-75
2022/03/21 04:43:14;;;;;;;18.53;13.67;;;;;;;;;;5038615;28;20288;-74
2022/03/21 04:45:41;;;;;;;17.03;13.70;;;;;;;;;;5037711;28;20209;-75
2022/03/21 04:48:09;;;;;;;16.77;13.60;;;;;;;;;;5035975;28;20209;-75
2022/03/21 04:50:36;;;;;;;16.67;12.83;;;;;;;;;;5035275;28;20587;-77
2022/03/21 04:53:04;;;;;;;17.93;12.23;;;;;;;;;;5036619;28;20236;-75
2022/03/21 04:55:32;;;;;;;17.77;13.77;;;;;;;;;;5036527;28;20267;-75
2022/03/21 04:58:00;;;;;;;16.90;12.90;;;;;;;;;;5034915;28;20292;-75
2022/03/21 05:00:28;;;;;;;15.07;12.43;;;;;;;;;;5035223;28;20312;-75
2022/03/21 05:02:56;;;;;;;17.57;13.40;;;;;;;;;;5034793;28;20233;-75
2022/03/21 05:05:24;;;;;;;15.47;12.30;;;;;;;;;;5036387;28;20229;-74
2022/03/21 05:07:53;;;;;;;16.30;12.70;;;;;;;;;;5035020;28;20206;-74
2022/03/21 05:10:21;;;;;;;15.93;12.93;;;;;;;;;;5027171;28;20334;-76
2022/03/21 05:12:48;;;;;;;18.43;13.87;;;;;;;;;;5029699;28;20230;-75
2022/03/21 05:15:15;;;;;;;16.70;12.97;;;;;;;;;;5034869;28;20206;-77
2022/03/21 05:17:44;;;;;;;18.50;13.50;;;;;;;;;;5032493;28;20212;-75
2022/03/21 05:20:18;;;;;;;21.30;15.47;;;;;;;;;;5033576;28;20283;-75
2022/03/21 05:30:57;;;;;;;17.10;13.30;;;;;;;;;;5035145;28;20216;-75
2022/03/21 05:31:04;;;;;;;20.13;13.13;;;;;;;;;;5033748;28;20232;-75
2022/03/21 05:36:19;;;;;;;19.47;14.13;;;;;;;;;;5028015;28;20204;-75
2022/03/21 05:38:46;;;;;;;18.57;13.73;;;;;;;;;;5031037;28;20280;-75
2022/03/21 05:41:13;;;;;;;18.50;14.20;;;;;;;;;;5030240;28;20225;-75
2022/03/21 05:43:40;;;;;;;19.30;13.63;;;;;;;;;;5031219;28;20241;-75
2022/03/21 05:46:08;;;;;;;17.57;13.37;;;;;;;;;;5030792;28;20208;-75
2022/03/21 05:48:54;;;;;;;19.37;14.27;;;;;;;;;;5030942;28;20210;-75
2022/03/21 05:51:22;;;;;;;21.50;13.63;;;;;;;;;;5032708;28;20209;-75
2022/03/21 05:53:50;;;;;;;18.70;14.07;;;;;;;;;;5031298;28;20322;-75
2022/03/21 05:56:17;;;;;;;17.87;13.63;;;;;;;;;;5031997;28;20202;-75
2022/03/21 05:58:44;;;;;;;16.90;13.43;;;;;;;;;;5030887;28;20657;-80
2022/03/21 06:01:12;;;;;;;18.50;13.40;;;;;;;;;;5035146;28;20316;-77
2022/03/21 06:03:41;;;;;;;19.33;13.73;;;;;;;;;;5034090;28;20281;-78
2022/03/21 06:06:10;;;;;;;18.20;13.47;;;;;;;;;;5033176;28;20258;-76
2022/03/21 06:08:37;;;;;;;16.83;13.43;;;;;;;;;;5032787;28;20198;-75
2022/03/21 06:11:08;;;;;;;19.10;13.03;;;;;;;;;;5034412;28;20230;-82
2022/03/21 06:13:35;;;;;;;18.23;13.07;;;;;;;;;;5033269;28;20229;-76
2022/03/21 06:16:03;;;;;;;19.50;13.50;;;;;;;;;;5033560;28;20232;-76
2022/03/21 06:18:31;;;;;;;16.07;12.67;;;;;;;;;;5033668;28;20228;-79
2022/03/21 06:21:00;;;;;;;20.07;13.57;;;;;;;;;;5029598;28;20244;-81
2022/03/21 06:23:27;;;;;;;18.83;13.37;;;;;;;;;;5030410;28;20257;-75
2022/03/21 06:25:55;;;;;;;18.47;13.03;;;;;;;;;;5030286;28;20220;-76
2022/03/21 06:28:22;;;;;;;16.07;12.93;;;;;;;;;;5029861;28;20248;-76
2022/03/21 06:30:51;;;;;;;23.73;14.00;;;;;;;;;;5032870;28;20312;-75
2022/03/21 06:33:18;;;;;;;18.07;13.07;;;;;;;;;;5033306;28;20224;-75
2022/03/21 06:35:46;;;;;;;21.20;13.60;;;;;;;;;;5033246;28;20208;-75
2022/03/21 06:38:15;;;;;;;18.57;13.57;;;;;;;;;;5032680;28;20198;-75
2022/03/21 06:40:43;;;;;;;20.60;13.60;;;;;;;;;;5030914;28;20233;-75
2022/03/21 06:43:10;;;;;;;17.53;13.17;;;;;;;;;;5032506;28;20206;-75
2022/03/21 06:45:37;;;;;;;18.53;12.47;;;;;;;;;;5032125;28;20204;-75
2022/03/21 06:48:05;;;;;;;16.97;12.47;;;;;;;;;;5032379;28;20285;-75
2022/03/21 06:50:32;;;;;;;16.63;12.97;;;;;;;;;;5032737;28;20217;-75
2022/03/21 06:52:59;;;;;;;19.00;12.30;;;;;;;;;;5032503;28;20323;-75
2022/03/21 06:55:28;;;;;;;18.60;12.73;;;;;;;;;;5029786;28;20262;-75
2022/03/21 06:57:58;;;;;;;16.60;12.47;;;;;;;;;;5032018;28;20210;-75
2022/03/21 07:00:25;;;;;;;17.83;12.70;;;;;;;;;;5027157;28;20308;-76
2022/03/21 07:02:53;;;;;;;17.67;13.00;;;;;;;;;;5031447;28;20206;-75
2022/03/21 07:05:21;;;;;;;15.07;13.37;;;;;;;;;;5032990;28;20202;-77
2022/03/21 07:07:50;;;;;;;16.20;12.63;;;;;;;;;;5032001;28;20209;-76
2022/03/21 07:10:18;;;;;;;19.40;13.10;;;;;;;;;;5032482;28;20261;-76
2022/03/21 07:12:46;;;;;;;15.77;12.57;;;;;;;;;;5032713;28;20224;-75
2022/03/21 07:15:15;;;;;;;16.23;12.53;;;;;;;;;;5032324;28;20213;-75
2022/03/21 07:17:42;;;;;;;13.73;11.93;;;;;;;;;;5031810;28;20216;-76
2022/03/21 07:20:11;;;;;;;16.10;11.37;;;;;;;;;;5032717;28;20249;-76
2022/03/21 07:22:38;;;;;;;15.47;11.50;;;;;;;;;;5033335;28;20245;-76
2022/03/21 07:25:07;;;;;;;14.47;11.90;;;;;;;;;;5032411;28;20220;-76
2022/03/21 07:27:36;;;;;;;15.77;11.80;;;;;;;;;;5031983;28;20213;-76
2022/03/21 07:30:05;;;;;;;13.97;12.17;;;;;;;;;;5032715;28;20230;-76
2022/03/21 07:32:33;;;;;;;16.60;13.00;;;;;;;;;;5032402;28;20259;-76
2022/03/21 07:35:00;;;;;;;15.77;12.93;;;;;;;;;;5031895;28;20205;-76
2022/03/21 07:37:27;;;;;;;14.43;12.57;;;;;;;;;;5028382;28;20213;-76
2022/03/21 07:42:27;;;;;;;14.67;12.57;;;;;;;;;;5083001;22;20248;-79
2022/03/21 07:47:40;;;;;;;13.60;11.77;;;;;;;;;;5071080;28;20273;-79
2022/03/21 07:50:08;;;;;;;13.70;11.57;;;;;;;;;;5069871;28;20276;-83
2022/03/21 07:52:35;;;;;;;14.20;12.33;;;;;;;;;;5049749;28;20262;-78
2022/03/21 07:55:03;;;;;;;12.83;11.57;;;;;;;;;;5053783;28;20201;-78
2022/03/21 07:57:30;;;;;;;15.03;12.77;;;;;;;;;;5050154;28;20205;-79
2022/03/21 07:59:58;;;;;;;13.70;12.27;;;;;;;;;;5050672;28;20193;-79
2022/03/21 08:02:27;;;;;;;14.63;12.03;;;;;;;;;;5051865;28;20268;-78
2022/03/21 08:04:55;;;;;;;14.50;11.93;;;;;;;;;;5046371;28;20194;-79
2022/03/21 08:07:23;;;;;;;14.67;12.17;;;;;;;;;;5050488;28;20209;-77
2022/03/21 08:09:50;;;;;;;13.77;12.13;;;;;;;;;;5053914;28;20201;-78
2022/03/21 08:12:18;;;;;;;14.33;12.57;;;;;;;;;;5054022;28;20248;-78
2022/03/21 08:14:45;;;;;;;14.13;12.37;;;;;;;;;;5047790;28;20229;-78
2022/03/21 08:17:12;;;;;;;16.23;12.63;;;;;;;;;;5049266;28;20208;-79
2022/03/21 08:19:39;;;;;;;17.43;13.40;;;;;;;;;;5055708;28;20201;-79
2022/03/21 08:22:08;;;;;;;16.80;12.40;;;;;;;;;;5055775;28;20252;-79
2022/03/21 08:24:36;;;;;;;16.47;12.90;;;;;;;;;;5055186;28;20705;-79
2022/03/21 08:27:04;;;;;;;15.47;12.83;;;;;;;;;;5055856;28;20301;-79
2022/03/21 08:29:32;;;;;;;14.67;11.87;;;;;;;;;;5057189;28;20205;-79
2022/03/21 08:31:59;;;;;;;14.67;12.10;;;;;;;;;;5057201;28;20279;-79
2022/03/21 08:34:27;;;;;;;15.43;12.50;;;;;;;;;;5057123;28;20221;-79
2022/03/21 08:36:54;;;;;;;14.73;12.67;;;;;;;;;;5055840;28;20255;-79
2022/03/21 08:39:23;;;;;;;15.67;12.37;;;;;;;;;;5056642;28;20221;-79
2022/03/21 08:41:50;;;;;;;17.57;13.00;;;;;;;;;;5060025;28;20233;-79
2022/03/21 08:44:19;;;;;;;14.23;11.33;;;;;;;;;;5063778;28;20205;-79
2022/03/21 08:46:47;;;;;;;16.83;13.27;;;;;;;;;;5066536;28;20232;-79
2022/03/21 08:49:27;;;;;;;15.80;11.40;;;;;;;;;;5069357;28;20232;-79
2022/03/21 08:51:54;;;;;;;15.23;11.53;;;;;;;;;;5062374;28;20274;-79
2022/03/21 08:54:23;;;;;;;14.70;13.07;;;;;;;;;;5059278;28;20320;-79
2022/03/21 08:56:51;;;;;;;14.37;12.00;;;;;;;;;;5057667;28;20201;-79
2022/03/21 08:59:18;;;;;;;14.07;12.43;;;;;;;;;;5058322;28;20260;-79
2022/03/21 09:01:46;;;;;;;13.77;12.33;;;;;;;;;;5055737;28;20230;-79
2022/03/21 09:04:13;;;;;;;13.27;11.87;;;;;;;;;;5055328;28;20240;-79
2022/03/21 09:06:41;;;;;;;13.90;12.50;;;;;;;;;;5054440;28;20215;-79
2022/03/21 09:09:08;;;;;;;15.27;13.10;;;;;;;;;;5054990;28;20251;-79
2022/03/21 09:11:37;;;;;;;14.20;12.70;;;;;;;;;;5054875;28;20304;-79
2022/03/21 09:14:06;;;;;;;14.20;12.70;;;;;;;;;;5054993;28;20223;-79
2022/03/21 09:16:34;;;;;;;15.13;12.60;;;;;;;;;;5050882;28;20240;-79
2022/03/21 09:19:01;;;;;;;14.30;12.27;;;;;;;;;;5066345;28;20252;-78
2022/03/21 09:21:28;;;;;;;15.37;12.67;;;;;;;;;;5062992;28;20293;-79
2022/03/21 09:23:55;;;;;;;15.47;13.03;;;;;;;;;;5060241;28;20216;-79
2022/03/21 09:26:22;;;;;;;15.93;13.17;;;;;;;;;;5065139;28;20205;-79
2022/03/21 09:28:59;;;;;;;14.07;11.93;;;;;;;;;;5058754;28;20209;-78
2022/03/21 09:31:27;;;;;;;14.37;12.87;;;;;;;;;;5058501;28;20242;-79
2022/03/21 09:33:54;;;;;;;15.03;13.23;;;;;;;;;;5058780;28;20317;-79
2022/03/21 09:36:21;;;;;;;15.50;13.20;;;;;;;;;;5059170;28;20204;-80
2022/03/21 09:38:48;;;;;;;14.40;12.90;;;;;;;;;;5057970;28;20219;-79
2022/03/21 09:41:22;;;;;;;15.57;12.87;;;;;;;;;;5057870;28;20271;-79
2022/03/21 09:43:50;;;;;;;15.70;13.67;;;;;;;;;;5059643;28;20210;-79
2022/03/21 09:46:20;;;;;;;16.83;13.80;;;;;;;;;;5058541;28;20228;-79
2022/03/21 09:48:48;;;;;;;15.93;13.17;;;;;;;;;;5057398;28;20209;-79
2022/03/21 09:51:15;;;;;;;17.77;13.80;;;;;;;;;;5058030;28;20229;-79
2022/03/21 09:53:43;;;;;;;17.87;14.10;;;;;;;;;;5057745;28;20348;-81
2022/03/21 09:56:10;;;;;;;16.43;13.27;;;;;;;;;;5058155;28;20300;-79
2022/03/21 09:58:37;;;;;;;15.80;13.43;;;;;;;;;;5057440;28;20201;-79
2022/03/21 10:01:05;;;;;;;17.93;13.97;;;;;;;;;;5057202;28;20256;-79
2022/03/21 10:03:35;;;;;;;16.43;14.20;;;;;;;;;;5053738;28;20204;-79
2022/03/21 10:06:02;;;;;;;14.40;12.90;;;;;;;;;;5056984;28;20201;-80
2022/03/21 10:08:30;;;;;;;15.70;12.90;;;;;;;;;;5057566;28;20205;-79
2022/03/21 10:10:59;;;;;;;16.47;13.83;;;;;;;;;;5057711;28;20233;-80
2022/03/21 10:13:27;;;;;;;16.33;13.73;;;;;;;;;;5062250;28;20264;-79
2022/03/21 10:16:10;;;;;;;15.80;13.17;;;;;;;;;;5062819;28;20265;-80
2022/03/21 10:18:39;;;;;;;16.50;13.33;;;;;;;;;;5058576;28;20212;-79
2022/03/21 10:21:14;;;;;;;17.13;13.07;;;;;;;;;;5058728;28;20233;-79
2022/03/21 10:23:44;;;;;;;16.40;13.40;;;;;;;;;;5058770;28;20296;-79
2022/03/21 10:26:29;;;;;;;15.63;13.53;;;;;;;;;;5058731;28;20244;-79
2022/03/21 10:28:58;;;;;;;16.27;13.50;;;;;;;;;;5053825;28;20304;-79
2022/03/21 10:31:35;;;;;;;15.17;13.57;;;;;;;;;;5054605;28;20229;-79
2022/03/21 10:34:05;;;;;;;14.87;13.27;;;;;;;;;;5058925;28;20227;-79
2022/03/21 10:36:32;;;;;;;15.40;13.50;;;;;;;;;;5057143;28;20259;-79
2022/03/21 10:39:13;;;;;;;17.77;14.10;;;;;;;;;;5057017;28;20207;-79
2022/03/21 10:41:42;;;;;;;15.13;13.53;;;;;;;;;;5057340;28;20237;-79
2022/03/21 10:44:10;;;;;;;14.43;12.90;;;;;;;;;;5057876;28;20201;-79
2022/03/21 10:46:37;;;;;;;16.55;12.52;;;;;;;;;;5057006;28;20213;-79
2022/03/21 10:49:07;;;;;;;15.20;13.47;;;;;;;;;;5055179;28;20203;-79
2022/03/21 10:51:47;;;;;;;15.97;14.07;;;;;;;;;;5056885;28;20248;-80
2022/03/21 10:54:35;;;;;;;17.00;14.90;;;;;;;;;;5054292;28;20225;-80
2022/03/21 10:57:03;;;;;;;17.53;14.10;;;;;;;;;;5051893;28;20285;-79
2022/03/21 10:59:30;;;;;;;17.63;14.63;;;;;;;;;;5056291;28;20280;-79
2022/03/21 11:02:10;;;;;;;16.13;13.88;;;;;;;;;;5049269;28;20225;-80
2022/03/21 11:04:39;;;;;;;16.77;14.35;;;;;;;;;;5054881;28;20272;-79
2022/03/21 11:07:08;;;;;;;16.20;14.27;;;;;;;;;;5057012;28;20205;-79
2022/03/21 11:09:36;;;;;;;16.83;14.82;;;;;;;;;;5056488;28;20209;-79
2022/03/21 11:12:03;;;;;;;17.33;15.10;;;;;;;;;;5052750;28;20221;-80
2022/03/21 11:14:31;;;;;;;17.65;14.98;;;;;;;;;;5054930;28;20213;-79
2022/03/21 11:17:00;;;;;;;17.70;14.88;;;;;;;;;;5053893;28;20219;-80
2022/03/21 11:19:29;;;;;;;18.50;14.60;;;;;;;;;;5055721;28;20232;-79
2022/03/21 11:21:58;;;;;;;15.73;14.15;;;;;;;;;;5056369;28;20225;-81
2022/03/21 11:24:26;;;;;;;17.02;15.23;;;;;;;;;;5054916;28;20193;-80
2022/03/21 11:26:55;;;;;;;15.95;14.27;;;;;;;;;;5053867;28;20201;-80
2022/03/21 11:29:28;;;;;;;16.75;15.00;;;;;;;;;;5054182;28;20291;-78
2022/03/21 11:32:01;;;;;;;16.00;14.30;;;;;;;;;;5053749;28;20293;-81
2022/03/21 11:34:35;;;;;;;16.63;14.93;;;;;;;;;;5054482;28;20260;-79
2022/03/21 11:37:04;;;;;;;17.10;14.60;;;;;;;;;;5049124;28;20228;-79
2022/03/21 11:39:32;;;;;;;15.73;14.20;;;;;;;;;;5054247;28;20208;-81
2022/03/21 11:42:00;;;;;;;16.42;14.38;;;;;;;;;;5051356;28;20229;-80
2022/03/21 11:44:28;;;;;;;17.42;15.18;;;;;;;;;;5051124;28;20193;-85
2022/03/21 11:46:55;;;;;;;15.57;13.98;;;;;;;;;;5051430;28;20303;-79
2022/03/21 11:49:41;;;;;;;16.58;14.98;;;;;;;;;;5049544;28;20296;-77
2022/03/21 11:52:10;;;;;;;16.83;15.13;;;;;;;;;;5050558;28;20219;-77
2022/03/21 11:54:38;;;;;;;16.67;15.05;;;;;;;;;;5052956;28;20227;-85
2022/03/21 11:57:07;;;;;;;16.25;14.63;;;;;;;;;;5051698;28;20212;-79
2022/03/21 11:59:53;;;;;;;16.35;14.65;;;;;;;;;;5052476;28;20224;-78
2022/03/21 12:02:54;;;;;;;16.52;14.93;;;;;;;;;;5052863;28;20221;-77
2022/03/21 12:05:51;;;;;;;16.92;14.63;;;;;;;;;;5052846;28;20205;-78
2022/03/21 12:08:48;;;;;;;17.00;15.30;;;;;;;;;;5046256;28;20288;-78
2022/03/21 12:11:39;;;;;;;16.73;14.77;;;;;;;;;;5050138;28;20221;-78
2022/03/21 12:14:25;;;;;;;16.95;15.07;;;;;;;;;;5036849;28;20201;-78
2022/03/21 12:17:26;;;;;;;15.70;14.00;;;;;;;;;;5048269;28;20240;-79
2022/03/21 12:20:11;;;;;;;16.67;14.90;;;;;;;;;;5071119;28;20188;-79
2022/03/21 12:22:39;;;;;;;17.00;15.20;;;;;;;;;;5062241;28;20204;-79
2022/03/21 12:25:08;;;;;;;16.98;15.30;;;;;;;;;;5056458;28;20197;-79
2022/03/21 12:27:36;;;;;;;15.70;13.48;;;;;;;;;;5049547;28;20233;-79
2022/03/21 12:30:23;;;;;;;16.90;15.10;;;;;;;;;;5054528;28;20211;-79
2022/03/21 12:32:53;;;;;;;16.67;15.00;;;;;;;;;;5061847;28;20204;-79
2022/03/21 12:35:35;;;;;;;14.95;13.35;;;;;;;;;;5070921;28;20290;-79
2022/03/21 12:38:03;;;;;;;15.32;13.70;;;;;;;;;;5055663;28;20201;-79
2022/03/21 12:40:30;;;;;;;16.13;13.90;;;;;;;;;;5054911;28;20267;-79
2022/03/21 12:42:58;;;;;;;16.55;14.85;;;;;;;;;;5055102;28;20207;-79
2022/03/21 12:45:25;;;;;;;14.30;12.88;;;;;;;;;;5056845;28;20288;-79
2022/03/21 12:48:00;;;;;;;14.50;13.00;;;;;;;;;;5052477;28;20228;-79
2022/03/21 12:50:27;;;;;;;15.27;13.68;;;;;;;;;;5050937;28;20303;-79
2022/03/21 12:52:56;;;;;;;14.98;13.23;;;;;;;;;;5056269;28;20235;-78
2022/03/21 12:55:23;;;;;;;16.00;12.77;;;;;;;;;;5055596;28;20216;-79
2022/03/21 12:57:54;;;;;;;16.90;13.90;;;;;;;;;;5055918;28;20232;-81
2022/03/21 13:00:22;;;;;;;13.98;12.57;;;;;;;;;;5061200;28;20272;-81
2022/03/21 13:02:55;;;;;;;14.30;11.60;;;;;;;;;;5063002;28;20232;-81
2022/03/21 13:11:01;;;;;;;13.35;11.95;;;;;;;;;;5059941;28;20232;-78
2022/03/21 13:13:40;;;;;;;12.90;10.73;;;;;;;;;;5062669;28;20208;-78
2022/03/21 13:16:08;;;;;;;12.20;10.98;;;;;;;;;;5056565;28;20237;-79
2022/03/21 13:18:38;;;;;;;12.82;10.43;;;;;;;;;;5058330;28;20235;-79
2022/03/21 13:21:08;;;;;;;12.80;11.35;;;;;;;;;;5059207;28;20229;-79
2022/03/21 13:23:35;;;;;;;12.65;10.70;;;;;;;;;;5060367;28;20259;-79
2022/03/21 13:26:10;;;;;;;14.23;10.60;;;;;;;;;;5042017;28;20210;-79
2022/03/21 13:28:39;;;;;;;12.18;10.55;;;;;;;;;;5056660;28;20204;-79
2022/03/21 13:31:09;;;;;;;15.65;10.73;;;;;;;;;;5042867;28;20225;-79
2022/03/21 13:33:37;;;;;;;10.88;9.35;;;;;;;;;;5058539;28;20197;-79
2022/03/21 13:36:07;;;;;;;11.57;9.95;;;;;;;;;;5058744;28;20236;-79
2022/03/21 13:38:36;;;;;;;11.00;9.85;;;;;;;;;;5057401;28;20236;-79
2022/03/21 13:41:03;;;;;;;11.45;10.27;;;;;;;;;;5051550;28;20233;-79
2022/03/21 13:43:32;;;;;;;13.73;10.27;;;;;;;;;;5058322;28;20189;-80
2022/03/21 13:46:00;;;;;;;11.30;9.25;;;;;;;;;;5058466;28;20251;-79
2022/03/21 13:48:35;;;;;;;10.73;9.32;;;;;;;;;;5059504;28;20221;-81
2022/03/21 13:51:07;;;;;;;11.40;8.70;;;;;;;;;;5063003;28;20217;-82
2022/03/21 13:53:39;;;;;;;12.40;8.93;;;;;;;;;;5056394;28;20208;-83
2022/03/21 13:56:11;;;;;;;12.57;9.13;;;;;;;;;;5043710;28;20224;-81
2022/03/21 13:58:39;;;;;;;14.40;10.48;;;;;;;;;;5057858;28;20209;-82
2022/03/21 14:01:19;;;;;;;14.35;11.10;;;;;;;;;;5058074;28;20228;-82
2022/03/21 14:03:53;;;;;;;19.77;13.23;;;;;;;;;;5055290;28;20252;-80
2022/03/21 14:06:20;;;;;;;11.20;10.07;;;;;;;;;;5054062;28;20205;-80
2022/03/21 14:09:01;;;;;;;15.50;11.15;;;;;;;;;;5055697;28;20200;-81
2022/03/21 14:11:31;;;;;;;11.88;9.85;;;;;;;;;;5054914;28;20318;-80
2022/03/21 14:14:00;;;;;;;16.67;9.30;;;;;;;;;;5056489;28;20292;-79
2022/03/21 14:16:28;;;;;;;16.70;10.18;;;;;;;;;;5055003;28;20239;-80
2022/03/21 14:18:56;;;;;;;11.18;10.00;;;;;;;;;;5055176;28;20212;-80
2022/03/21 14:21:25;;;;;;;12.98;9.70;;;;;;;;;;5055798;28;20229;-81
2022/03/21 14:23:55;;;;;;;10.98;9.30;;;;;;;;;;5048694;28;20237;-81
2022/03/21 14:26:34;;;;;;;15.48;10.55;;;;;;;;;;5055866;28;20201;-80
2022/03/21 14:29:01;;;;;;;13.35;10.15;;;;;;;;;;5050425;28;20251;-81
2022/03/21 14:31:29;;;;;;;14.95;11.20;;;;;;;;;;5055127;28;20251;-79
2022/03/21 14:33:56;;;;;;;12.57;10.88;;;;;;;;;;5055864;28;20205;-79
2022/03/21 14:36:23;;;;;;;14.27;11.10;;;;;;;;;;5056759;28;20229;-79
2022/03/21 14:38:56;;;;;;;12.98;10.43;;;;;;;;;;5056597;28;20272;-79
2022/03/21 14:41:23;;;;;;;11.70;10.50;;;;;;;;;;5051459;28;20236;-79
2022/03/21 14:43:51;;;;;;;11.35;9.45;;;;;;;;;;5057619;28;20216;-78
2022/03/21 14:46:21;;;;;;;12.70;11.40;;;;;;;;;;5058100;28;20261;-79
2022/03/21 14:48:49;;;;;;;11.50;9.43;;;;;;;;;;5061579;28;20205;-79
2022/03/21 14:51:16;;;;;;;11.73;10.43;;;;;;;;;;5067991;28;20229;-79
2022/03/21 14:53:44;;;;;;;11.57;10.25;;;;;;;;;;5068599;28;20209;-79